Observation data for Levelland on 05/25/2019      Previous  Date  Next       Current Mesonet Observations  Soil Data  Daily Summary Page  Observations in Plain Language
KLD1 250500Z 09009KT 19/17 A2999 RMK A01 T01880165  RH  091%=      5-min Rain = 0
KLD1 250505Z 09009KT 19/17 A2999 RMK A01 T01870165  RH  091%=      5-min Rain = 0
KLD1 250510Z 09009KT 19/16 A2999 RMK A01 T01860164  RH  092%=      5-min Rain = 0
KLD1 250515Z 10009KT 18/16 A2999 RMK A01 T01840164  RH  092%=      5-min Rain = 0
KLD1 250520Z 10010KT 18/16 A2999 RMK A01 T01840164  RH  093%=      5-min Rain = 0
KLD1 250525Z 11011KT 19/17 A2998 RMK A01 T01850165  RH  092%=      5-min Rain = 0
KLD1 250530Z 11011KT 19/17 A2998 RMK A01 T01870165  RH  092%=      5-min Rain = 0
KLD1 250535Z 11011KT 19/17 A2999 RMK A01 T01870165  RH  092%=      5-min Rain = 0
KLD1 250540Z 11011KT 19/17 A2998 RMK A01 T01870165  RH  092%=      5-min Rain = 0
KLD1 250545Z 11010KT 19/17 A2998 RMK A01 T01870166  RH  092%=      5-min Rain = 0
KLD1 250550Z 11010KT 19/17 A2998 RMK A01 T01870166  RH  092%=      5-min Rain = 0
KLD1 250555Z 11009KT 19/17 A2998 RMK A01 T01870166  RH  092%=      5-min Rain = 0
KLD1 250600Z 10008KT 19/17 A2998 RMK A01 T01850166  RH  093%=      5-min Rain = 0
KLD1 250605Z 10007KT 18/17 A2999 RMK A01 T01830166  RH  094%=      5-min Rain = 0
KLD1 250610Z 10007KT 18/17 A2998 RMK A01 T01830166  RH  094%=      5-min Rain = 0
KLD1 250615Z 10007KT 18/17 A2998 RMK A01 T01830166  RH  094%=      5-min Rain = 0
KLD1 250620Z 10007KT 18/17 A2998 RMK A01 T01840166  RH  094%=      5-min Rain = 0
KLD1 250625Z 10007KT 18/17 A2998 RMK A01 T01840166  RH  094%=      5-min Rain = 0
KLD1 250630Z 10008KT 18/17 A2998 RMK A01 T01830166  RH  094%=      5-min Rain = 0
KLD1 250635Z 10007KT 18/17 A2998 RMK A01 T01820166  RH  095%=      5-min Rain = 0
KLD1 250640Z 10008KT 18/17 A2998 RMK A01 T01810165  RH  095%=      5-min Rain = 0
KLD1 250645Z 10007KT 18/17 A2998 RMK A01 T01800165  RH  095%=      5-min Rain = 0
KLD1 250650Z 10007KT 18/16 A2998 RMK A01 T01790164  RH  095%=      5-min Rain = 0
KLD1 250655Z 10007KT 18/16 A2998 RMK A01 T01780164  RH  096%=      5-min Rain = 0
KLD1 250700Z 11007KT 18/16 A2997 RMK A01 T01780164  RH  096%=      5-min Rain = 0
KLD1 250705Z 11008KT 18/16 A2997 RMK A01 T01780164  RH  096%=      5-min Rain = 0
KLD1 250710Z 11009KT 18/16 A2997 RMK A01 T01780163  RH  096%=      5-min Rain = 0
KLD1 250715Z 11009KT 18/16 A2997 RMK A01 T01770163  RH  096%=      5-min Rain = 0
KLD1 250720Z 10008KT 18/16 A2997 RMK A01 T01760162  RH  096%=      5-min Rain = 0
KLD1 250725Z 10008KT 18/16 A2997 RMK A01 T01750161  RH  096%=      5-min Rain = 0
KLD1 250730Z 10009KT 17/16 A2997 RMK A01 T01740161  RH  096%=      5-min Rain = 0
KLD1 250735Z 10010KT 17/16 A2997 RMK A01 T01740161  RH  097%=      5-min Rain = 0
KLD1 250740Z 11009KT 17/16 A2997 RMK A01 T01740161  RH  097%=      5-min Rain = 0
KLD1 250745Z 10009KT 17/16 A2996 RMK A01 T01730161  RH  097%=      5-min Rain = 0
KLD1 250750Z 10009KT 17/16 A2996 RMK A01 T01730161  RH  097%=      5-min Rain = 0
KLD1 250755Z 10009KT 17/16 A2996 RMK A01 T01730161  RH  097%=      5-min Rain = 0
KLD1 250800Z 10009KT 17/16 A2996 RMK A01 T01730162  RH  098%=      5-min Rain = 0
KLD1 250805Z 10010KT 17/16 A2996 RMK A01 T01730162  RH  098%=      5-min Rain = 0
KLD1 250810Z 11010KT 17/16 A2996 RMK A01 T01730162  RH  098%=      5-min Rain = 0
KLD1 250815Z 11010KT 17/16 A2996 RMK A01 T01730162  RH  098%=      5-min Rain = 0
KLD1 250820Z 11009KT 17/16 A2996 RMK A01 T01730162  RH  098%=      5-min Rain = 0
KLD1 250825Z 10009KT 17/16 A2996 RMK A01 T01730163  RH  098%=      5-min Rain = 0
KLD1 250830Z 10009KT 17/16 A2996 RMK A01 T01740163  RH  098%=      5-min Rain = 0
KLD1 250835Z 10009KT 18/16 A2996 RMK A01 T01750164  RH  098%=      5-min Rain = 0
KLD1 250840Z 10009KT 18/17 A2996 RMK A01 T01760165  RH  098%=      5-min Rain = 0
KLD1 250845Z 10009KT 18/17 A2996 RMK A01 T01760166  RH  098%=      5-min Rain = 0
KLD1 250850Z 10008KT 18/17 A2996 RMK A01 T01770166  RH  098%=      5-min Rain = 0
KLD1 250855Z 11009KT 18/17 A2996 RMK A01 T01780166  RH  098%=      5-min Rain = 0
KLD1 250900Z 11010KT 18/17 A2996 RMK A01 T01780167  RH  098%=      5-min Rain = 0
KLD1 250905Z 11009KT 18/17 A2995 RMK A01 T01790167  RH  098%=      5-min Rain = 0
KLD1 250910Z 11007KT 18/17 A2995 RMK A01 T01790167  RH  097%=      5-min Rain = 0
KLD1 250915Z 11010KT 18/17 A2995 RMK A01 T01790167  RH  097%=      5-min Rain = 0
KLD1 250920Z 11009KT 18/17 A2995 RMK A01 T01800168  RH  097%=      5-min Rain = 0
KLD1 250925Z 11008KT 18/17 A2996 RMK A01 T01810168  RH  097%=      5-min Rain = 0
KLD1 250930Z 11008KT 18/17 A2995 RMK A01 T01810168  RH  097%=      5-min Rain = 0
KLD1 250935Z 11009KT 18/17 A2995 RMK A01 T01820169  RH  097%=      5-min Rain = 0
KLD1 250940Z 11009KT 18/17 A2996 RMK A01 T01830169  RH  097%=      5-min Rain = 0
KLD1 250945Z 12009KT 18/17 A2996 RMK A01 T01830170  RH  096%=      5-min Rain = 0
KLD1 250950Z 12009KT 18/17 A2996 RMK A01 T01840170  RH  096%=      5-min Rain = 0
KLD1 250955Z 12009KT 18/17 A2996 RMK A01 T01840170  RH  096%=      5-min Rain = 0
KLD1 251000Z 12009KT 19/17 A2996 RMK A01 T01850171  RH  096%=      5-min Rain = 0
KLD1 251005Z 12010KT 19/17 A2996 RMK A01 T01860171  RH  096%=      5-min Rain = 0
KLD1 251010Z 12009KT 19/17 A2996 RMK A01 T01860171  RH  096%=      5-min Rain = 0
KLD1 251015Z 12009G14KT 19/17 A2996 RMK A01 T01870172  RH  096%=      5-min Rain = 0
KLD1 251020Z 12010KT 19/17 A2996 RMK A01 T01870172  RH  096%=      5-min Rain = 0
KLD1 251025Z 12009KT 19/17 A2997 RMK A01 T01870172  RH  096%=      5-min Rain = 0
KLD1 251030Z 12008KT 19/17 A2997 RMK A01 T01870173  RH  096%=      5-min Rain = 0
KLD1 251035Z 13009KT 19/17 A2997 RMK A01 T01880173  RH  096%=      5-min Rain = 0
KLD1 251040Z 13010KT 19/17 A2997 RMK A01 T01880173  RH  096%=      5-min Rain = 0
KLD1 251045Z 12008KT 19/17 A2997 RMK A01 T01880173  RH  096%=      5-min Rain = 0
KLD1 251050Z 13009KT 19/17 A2997 RMK A01 T01880173  RH  096%=      5-min Rain = 0
KLD1 251055Z 13008KT 19/17 A2997 RMK A01 T01880173  RH  096%=      5-min Rain = 0
KLD1 251100Z 13009KT 19/17 A2998 RMK A01 T01890174  RH  096%=      5-min Rain = 0
KLD1 251105Z 13008KT 19/17 A2998 RMK A01 T01890174  RH  096%=      5-min Rain = 0
KLD1 251110Z 13007KT 19/18 A2998 RMK A01 T01900175  RH  096%=      5-min Rain = 0
KLD1 251115Z 13008KT 19/18 A2998 RMK A01 T01910176  RH  096%=      5-min Rain = 0
KLD1 251120Z 13007KT 19/18 A2998 RMK A01 T01920176  RH  095%=      5-min Rain = 0
KLD1 251125Z 13006KT 19/18 A2998 RMK A01 T01930177  RH  095%=      5-min Rain = 0
KLD1 251130Z 13007KT 19/18 A2998 RMK A01 T01940178  RH  095%=      5-min Rain = 0
KLD1 251135Z 14007KT 20/18 A2998 RMK A01 T01950178  RH  095%=      5-min Rain = 0
KLD1 251140Z 14008KT 20/18 A2998 RMK A01 T01960179  RH  095%=      5-min Rain = 0
KLD1 251145Z 13008KT 20/18 A2998 RMK A01 T01970179  RH  094%=      5-min Rain = 0
KLD1 251150Z 13008KT 20/18 A2999 RMK A01 T01980179  RH  094%=      5-min Rain = 0
KLD1 251155Z 13008KT 20/18 A2999 RMK A01 T01980180  RH  094%=      5-min Rain = 0
KLD1 251200Z 14008KT 20/18 A2999 RMK A01 T01980180  RH  094%=      5-min Rain = 0
KLD1 251205Z 13009KT 20/18 A2999 RMK A01 T01980180  RH  094%=      5-min Rain = 0
KLD1 251210Z 13010KT 20/18 A2999 RMK A01 T01980180  RH  094%=      5-min Rain = 0
KLD1 251215Z 13011KT 20/18 A2999 RMK A01 T01990180  RH  094%=      5-min Rain = 0
KLD1 251220Z 14010KT 20/18 A30 RMK A01 T01990180  RH  094%=      5-min Rain = 0
KLD1 251225Z 14009KT 20/18 A30 RMK A01 T01990180  RH  094%=      5-min Rain = 0
KLD1 251230Z 14010KT 20/18 A30 RMK A01 T01980180  RH  094%=      5-min Rain = 0
KLD1 251235Z 14010KT 20/18 A30 RMK A01 T01980181  RH  094%=      5-min Rain = 0
KLD1 251240Z 14010G15KT 20/18 A30 RMK A01 T01980180  RH  094%=      5-min Rain = 0
KLD1 251245Z 14012KT 20/18 A30 RMK A01 T01980180  RH  094%=      5-min Rain = 0
KLD1 251250Z 14011KT 20/18 A30 RMK A01 T01990181  RH  094%=      5-min Rain = 0
KLD1 251255Z 14011KT 20/18 A3001 RMK A01 T01990181  RH  094%=      5-min Rain = 0
KLD1 251300Z 14009KT 20/18 A3001 RMK A01 T01990181  RH  095%=      5-min Rain = 0
KLD1 251305Z 14011KT 20/18 A3001 RMK A01 T01990181  RH  094%=      5-min Rain = 0
KLD1 251310Z 14011KT 20/18 A3001 RMK A01 T01990181  RH  094%=      5-min Rain = 0
KLD1 251315Z 14012KT 20/18 A3001 RMK A01 T02000182  RH  094%=      5-min Rain = 0
KLD1 251320Z 14014KT 20/18 A3001 RMK A01 T01990182  RH  094%=      5-min Rain = 0
KLD1 251325Z 15012KT 20/18 A3002 RMK A01 T02000183  RH  095%=      5-min Rain = 0
KLD1 251330Z 15011G16KT 20/18 A3002 RMK A01 T02000183  RH  095%=      5-min Rain = 0
KLD1 251335Z 15012KT 20/18 A3002 RMK A01 T01990183  RH  095%=      5-min Rain = 0
KLD1 251340Z 14012KT 20/18 A3002 RMK A01 T01990183  RH  095%=      5-min Rain = 0
KLD1 251345Z 15012KT 20/18 A3002 RMK A01 T01990183  RH  095%=      5-min Rain = 0
KLD1 251350Z 15012KT 20/18 A3002 RMK A01 T02000184  RH  096%=      5-min Rain = 0
KLD1 251355Z 15011KT 20/18 A3002 RMK A01 T02000184  RH  096%=      5-min Rain = 0
KLD1 251400Z 15012KT 20/18 A3002 RMK A01 T02000184  RH  096%=      5-min Rain = 0
KLD1 251405Z 15013G18KT 20/19 A3002 RMK A01 T02000185  RH  096%=      5-min Rain = 0
KLD1 251410Z 14012G17KT 20/19 A3002 RMK A01 T02010185  RH  096%=      5-min Rain = 0
KLD1 251415Z 15012KT 20/19 A3002 RMK A01 T02010185  RH  095%=      5-min Rain = 0
KLD1 251420Z 15012KT 20/19 A3002 RMK A01 T02020186  RH  095%=      5-min Rain = 0
KLD1 251425Z 15013KT 20/19 A3002 RMK A01 T02020186  RH  095%=      5-min Rain = 0
KLD1 251430Z 15013KT 20/19 A3002 RMK A01 T02030185  RH  095%=      5-min Rain = 0
KLD1 251435Z 14013KT 20/19 A3002 RMK A01 T02040186  RH  094%=      5-min Rain = 0
KLD1 251440Z 15013KT 21/19 A3002 RMK A01 T02050186  RH  094%=      5-min Rain = 0
KLD1 251445Z 14013KT 21/19 A3002 RMK A01 T02050186  RH  094%=      5-min Rain = 0
KLD1 251450Z 14013KT 21/19 A3002 RMK A01 T02060186  RH  093%=      5-min Rain = 0
KLD1 251455Z 14014KT 21/19 A3002 RMK A01 T02070187  RH  093%=      5-min Rain = 0
KLD1 251500Z 15014KT 21/19 A3002 RMK A01 T02080187  RH  093%=      5-min Rain = 0
KLD1 251505Z 15013KT 21/19 A3002 RMK A01 T02090187  RH  092%=      5-min Rain = 0
KLD1 251510Z 14014KT 21/19 A3002 RMK A01 T02100187  RH  092%=      5-min Rain = 0
KLD1 251515Z 14014KT 21/19 A3002 RMK A01 T02120188  RH  091%=      5-min Rain = 0
KLD1 251520Z 14013KT 21/19 A3002 RMK A01 T02120188  RH  091%=      5-min Rain = 0
KLD1 251525Z 15015KT 21/19 A3002 RMK A01 T02130188  RH  091%=      5-min Rain = 0
KLD1 251530Z 15015KT 21/19 A3002 RMK A01 T02130188  RH  090%=      5-min Rain = 0
KLD1 251535Z 15015KT 21/19 A3002 RMK A01 T02140188  RH  090%=      5-min Rain = 0
KLD1 251540Z 15015KT 22/19 A3002 RMK A01 T02150189  RH  090%=      5-min Rain = 0
KLD1 251545Z 15015KT 22/19 A3002 RMK A01 T02160189  RH  089%=      5-min Rain = 0
KLD1 251550Z 15015G20KT 22/19 A3002 RMK A01 T02190190  RH  088%=      5-min Rain = 0
KLD1 251555Z 15015KT 22/19 A3002 RMK A01 T02170189  RH  089%=      5-min Rain = 0
KLD1 251600Z 14013G18KT 22/19 A3002 RMK A01 T02160189  RH  089%=      5-min Rain = 0
KLD1 251605Z 15014KT 22/19 A3002 RMK A01 T02160191  RH  091%=      5-min Rain = 0
KLD1 251610Z 14013KT 22/19 A3002 RMK A01 T02160192  RH  091%=      5-min Rain = 0
KLD1 251615Z 15014KT 22/19 A3002 RMK A01 T02180192  RH  090%=      5-min Rain = 0
KLD1 251620Z 15015KT 23/19 A3002 RMK A01 T02260194  RH  087%=      5-min Rain = 0
KLD1 251625Z 15017KT 23/19 A3002 RMK A01 T02290192  RH  084%=      5-min Rain = 0
KLD1 251630Z 14015KT 23/19 A3002 RMK A01 T02300192  RH  084%=      5-min Rain = 0
KLD1 251635Z 15016KT 23/19 A3002 RMK A01 T02330192  RH  082%=      5-min Rain = 0
KLD1 251640Z 15018KT 23/19 A3002 RMK A01 T02330191  RH  082%=      5-min Rain = 0
KLD1 251645Z 15018KT 23/19 A3002 RMK A01 T02320190  RH  082%=      5-min Rain = 0
KLD1 251650Z 15018G23KT 23/19 A3002 RMK A01 T02280189  RH  083%=      5-min Rain = 0
KLD1 251655Z 15017KT 23/19 A3002 RMK A01 T02310190  RH  082%=      5-min Rain = 0
KLD1 251700Z 15016KT 23/19 A3001 RMK A01 T02340191  RH  081%=      5-min Rain = 0
KLD1 251705Z 15017KT 23/19 A3001 RMK A01 T02310188  RH  081%=      5-min Rain = 0
KLD1 251710Z 15017KT 23/19 A3001 RMK A01 T02290189  RH  083%=      5-min Rain = 0
KLD1 251715Z 15016G21KT 23/19 A3001 RMK A01 T02320190  RH  082%=      5-min Rain = 0
KLD1 251720Z 14016KT 23/19 A3001 RMK A01 T02320190  RH  082%=      5-min Rain = 0
KLD1 251725Z 14015KT 23/19 A3001 RMK A01 T02330190  RH  081%=      5-min Rain = 0
KLD1 251730Z 14017KT 23/19 A3001 RMK A01 T02290189  RH  083%=      5-min Rain = 0
KLD1 251735Z 15017KT 23/19 A3001 RMK A01 T02280188  RH  083%=      5-min Rain = 0
KLD1 251740Z 14016KT 23/19 A3001 RMK A01 T02270189  RH  084%=      5-min Rain = 0
KLD1 251745Z 15018KT 23/19 A3001 RMK A01 T02290188  RH  082%=      5-min Rain = 0
KLD1 251750Z 14015KT 23/19 A30 RMK A01 T02290190  RH  083%=      5-min Rain = 0
KLD1 251755Z 14015G21KT 23/19 A2999 RMK A01 T02270189  RH  083%=      5-min Rain = 0
KLD1 251800Z 13017KT 23/19 A2999 RMK A01 T02280188  RH  083%=      5-min Rain = 0
KLD1 251805Z 14018KT 23/19 A2999 RMK A01 T02280188  RH  082%=      5-min Rain = 0
KLD1 251810Z 14015KT 23/19 A2999 RMK A01 T02280188  RH  082%=      5-min Rain = 0
KLD1 251815Z 14017G23KT 23/19 A2998 RMK A01 T02290188  RH  082%=      5-min Rain = 0
KLD1 251820Z 14017KT 23/19 A2998 RMK A01 T02290187  RH  082%=      5-min Rain = 0
KLD1 251825Z 14017G23KT 23/19 A2997 RMK A01 T02310188  RH  081%=      5-min Rain = 0
KLD1 251830Z 15019KT 23/19 A2998 RMK A01 T02300187  RH  081%=      5-min Rain = 0
KLD1 251835Z 14018G24KT 23/19 A2998 RMK A01 T02300189  RH  082%=      5-min Rain = 0
KLD1 251840Z 14018G25KT 23/19 A2998 RMK A01 T02310190  RH  083%=      5-min Rain = 0
KLD1 251845Z 15020G28KT 23/19 A2997 RMK A01 T02320189  RH  081%=      5-min Rain = 0
KLD1 251850Z 15021G26KT 24/19 A2997 RMK A01 T02360188  RH  079%=      5-min Rain = 0
KLD1 251855Z 15020G26KT 24/19 A2997 RMK A01 T02390189  RH  078%=      5-min Rain = 0
KLD1 251900Z 16021G27KT 25/19 A2996 RMK A01 T02470191  RH  075%=      5-min Rain = 0
KLD1 251905Z 16022KT 26/19 A2996 RMK A01 T02580191  RH  070%=      5-min Rain = 0
KLD1 251910Z 16021G27KT 26/19 A2997 RMK A01 T02630192  RH  068%=      5-min Rain = 0
KLD1 251915Z 16019G27KT 26/19 A2997 RMK A01 T02620189  RH  068%=      5-min Rain = 0
KLD1 251920Z 15017KT 26/19 A2996 RMK A01 T02560189  RH  070%=      5-min Rain = 0
KLD1 251925Z 15018KT 26/19 A2996 RMK A01 T02600189  RH  069%=      5-min Rain = 0
KLD1 251930Z 15017G22KT 25/19 A2996 RMK A01 T02540188  RH  070%=      5-min Rain = 0
KLD1 251935Z 14015G21KT 25/19 A2995 RMK A01 T02540193  RH  073%=      5-min Rain = 0
KLD1 251940Z 14014G22KT 25/20 A2995 RMK A01 T02540195  RH  074%=      5-min Rain = 0
KLD1 251945Z 15017G23KT 26/19 A2994 RMK A01 T02590190  RH  070%=      5-min Rain = 0
KLD1 251950Z 14018KT 26/19 A2994 RMK A01 T02600189  RH  069%=      5-min Rain = 0
KLD1 251955Z 14018G23KT 27/19 A2994 RMK A01 T02650190  RH  067%=      5-min Rain = 0
KLD1 252000Z 16019G25KT 27/19 A2994 RMK A01 T02670186  RH  065%=      5-min Rain = 0
KLD1 252005Z 16020G25KT 27/19 A2993 RMK A01 T02660185  RH  065%=      5-min Rain = 0
KLD1 252010Z 17020G27KT 27/18 A2993 RMK A01 T02740184  RH  061%=      5-min Rain = 0
KLD1 252015Z 17021G28KT 28/18 A2992 RMK A01 T02780184  RH  060%=      5-min Rain = 0
KLD1 252020Z 16021G29KT 28/18 A2992 RMK A01 T02770182  RH  060%=      5-min Rain = 0
KLD1 252025Z 16020G26KT 28/18 A2992 RMK A01 T02770183  RH  060%=      5-min Rain = 0
KLD1 252030Z 17020G26KT 28/18 A2992 RMK A01 T02790184  RH  059%=      5-min Rain = 0
KLD1 252035Z 16020G27KT 28/18 A2993 RMK A01 T02790180  RH  058%=      5-min Rain = 0
KLD1 252040Z 16021G27KT 27/18 A2993 RMK A01 T02740181  RH  060%=      5-min Rain = 0
KLD1 252045Z 16022G28KT 28/18 A2993 RMK A01 T02790182  RH  059%=      5-min Rain = 0
KLD1 252050Z 16020G27KT 28/18 A2992 RMK A01 T02770181  RH  059%=      5-min Rain = 0
KLD1 252055Z 15021G28KT 28/18 A2992 RMK A01 T02810183  RH  058%=      5-min Rain = 0
KLD1 252100Z 16020KT 28/18 A2991 RMK A01 T02820182  RH  057%=      5-min Rain = 0
KLD1 252105Z 16023G30KT 29/18 A299 RMK A01 T02870183  RH  056%=      5-min Rain = 0
KLD1 252110Z 15023G28KT 29/18 A299 RMK A01 T02860181  RH  056%=      5-min Rain = 0
KLD1 252115Z 15024G30KT 29/18 A2989 RMK A01 T02890181  RH  055%=      5-min Rain = 0
KLD1 252120Z 16026G38KT 29/18 A2989 RMK A01 T02900179  RH  054%=      5-min Rain = 0
KLD1 252125Z 16026KT 29/18 A2989 RMK A01 T02880180  RH  055%=      5-min Rain = 0
KLD1 252130Z 15026G33KT 29/18 A2988 RMK A01 T02860181  RH  056%=      5-min Rain = 0
KLD1 252135Z 15028G36KT 29/18 A2988 RMK A01 T02880181  RH  055%=      5-min Rain = 0
KLD1 252140Z 15025G32KT 29/18 A2988 RMK A01 T02890180  RH  055%=      5-min Rain = 0
KLD1 252145Z 16027G34KT 29/18 A2989 RMK A01 T02870175  RH  053%=      5-min Rain = 0
KLD1 252150Z 16028G35KT 28/17 A2989 RMK A01 T02790173  RH  055%=      5-min Rain = 0
KLD1 252155Z 16024G34KT 28/17 A2989 RMK A01 T02770173  RH  056%=      5-min Rain = 0
KLD1 252200Z 16024G30KT 28/17 A2989 RMK A01 T02750173  RH  057%=      5-min Rain = 0
KLD1 252205Z 16024G32KT 27/18 A2988 RMK A01 T02730175  RH  058%=      5-min Rain = 0
KLD1 252210Z 16029G35KT 27/18 A2987 RMK A01 T02680175  RH  060%=      5-min Rain = 0
KLD1 252215Z 16028G37KT 26/18 A2988 RMK A01 T02630177  RH  062%=      5-min Rain = 0
KLD1 252220Z 17027G33KT 26/18 A2989 RMK A01 T02580177  RH  064%=      5-min Rain = 0
KLD1 252225Z 17028G36KT 26/18 A2988 RMK A01 T02560176  RH  065%=      5-min Rain = 0
KLD1 252230Z 17026G32KT 26/18 A2988 RMK A01 T02550177  RH  065%=      5-min Rain = 0
KLD1 252235Z 17021G28KT 25/18 A2988 RMK A01 T02520177  RH  066%=      5-min Rain = 0
KLD1 252240Z 19014G21KT 25/18 A2988 RMK A01 T02520178  RH  067%=      5-min Rain = 0
KLD1 252245Z 20014G20KT 26/18 A2989 RMK A01 T02610180  RH  064%=      5-min Rain = 0
KLD1 252250Z 19025G33KT 27/18 A2989 RMK A01 T02740179  RH  059%=      5-min Rain = 0
KLD1 252255Z 17029G36KT 28/18 A299 RMK A01 T02760178  RH  058%=      5-min Rain = 0
KLD1 252300Z 17030G36KT 27/18 A299 RMK A01 T02720180  RH  060%=      5-min Rain = 0
KLD1 252305Z 16027G34KT 27/18 A299 RMK A01 T02730181  RH  061%=      5-min Rain = 0
KLD1 252310Z 17026G33KT 27/18 A2991 RMK A01 T02710181  RH  061%=      5-min Rain = 0
KLD1 252315Z 17027G32KT 27/18 A2991 RMK A01 T02710181  RH  061%=      5-min Rain = 0
KLD1 252320Z 17027G33KT 27/18 A2991 RMK A01 T02710180  RH  061%=      5-min Rain = 0
KLD1 252325Z 17024G33KT 27/18 A2992 RMK A01 T02740180  RH  060%=      5-min Rain = 0
KLD1 252330Z 16025G30KT 27/18 A2992 RMK A01 T02740179  RH  059%=      5-min Rain = 0
KLD1 252335Z 17024G29KT 27/18 A2992 RMK A01 T02740178  RH  059%=      5-min Rain = 0
KLD1 252340Z 17024KT 28/18 A2992 RMK A01 T02760176  RH  057%=      5-min Rain = 0
KLD1 252345Z 17022G27KT 28/18 A2992 RMK A01 T02760175  RH  057%=      5-min Rain = 0
KLD1 252350Z 16021G26KT 28/17 A2992 RMK A01 T02750172  RH  056%=      5-min Rain = 0
KLD1 252355Z 17022G27KT 28/17 A2992 RMK A01 T02760173  RH  056%=      5-min Rain = 0
KLD1 260000Z 17021G27KT 28/17 A2992 RMK A01 T02760173  RH  056%=      5-min Rain = 0
KLD1 260005Z 16021KT 28/17 A2992 RMK A01 T02760172  RH  056%=      5-min Rain = 0
KLD1 260010Z 16023G28KT 28/17 A2992 RMK A01 T02750173  RH  057%=      5-min Rain = 0
KLD1 260015Z 16023G28KT 27/17 A2992 RMK A01 T02720173  RH  058%=      5-min Rain = 0
KLD1 260020Z 16022G27KT 27/17 A2992 RMK A01 T02710174  RH  058%=      5-min Rain = 0
KLD1 260025Z 16023G28KT 27/17 A2991 RMK A01 T02690174  RH  059%=      5-min Rain = 0
KLD1 260030Z 16021G26KT 27/17 A2991 RMK A01 T02690172  RH  058%=      5-min Rain = 0
KLD1 260035Z 16023KT 27/17 A2991 RMK A01 T02680170  RH  058%=      5-min Rain = 0
KLD1 260040Z 16021KT 27/17 A2992 RMK A01 T02670170  RH  058%=      5-min Rain = 0
KLD1 260045Z 16019G25KT 27/17 A2992 RMK A01 T02660172  RH  059%=      5-min Rain = 0
KLD1 260050Z 16020KT 27/17 A2992 RMK A01 T02660172  RH  059%=      5-min Rain = 0
KLD1 260055Z 16017G23KT 26/17 A2992 RMK A01 T02640174  RH  061%=      5-min Rain = 0
KLD1 260100Z 16018G24KT 26/18 A2992 RMK A01 T02630177  RH  062%=      5-min Rain = 0
KLD1 260105Z 15020G25KT 26/18 A2992 RMK A01 T02600176  RH  063%=      5-min Rain = 0
KLD1 260110Z 15021G26KT 26/18 A2992 RMK A01 T02580176  RH  064%=      5-min Rain = 0
KLD1 260115Z 15019G24KT 26/18 A2992 RMK A01 T02560176  RH  065%=      5-min Rain = 0
KLD1 260120Z 15021G26KT 25/18 A2992 RMK A01 T02540175  RH  065%=      5-min Rain = 0
KLD1 260125Z 15020G25KT 25/18 A2993 RMK A01 T02530175  RH  065%=      5-min Rain = 0
KLD1 260130Z 15019G25KT 25/17 A2993 RMK A01 T02520174  RH  065%=      5-min Rain = 0
KLD1 260135Z 15019KT 25/17 A2993 RMK A01 T02500173  RH  066%=      5-min Rain = 0
KLD1 260140Z 15020G25KT 25/17 A2993 RMK A01 T02480174  RH  067%=      5-min Rain = 0
KLD1 260145Z 15019G25KT 25/17 A2993 RMK A01 T02460173  RH  067%=      5-min Rain = 0
KLD1 260150Z 15020G26KT 25/17 A2993 RMK A01 T02450173  RH  068%=      5-min Rain = 0
KLD1 260155Z 15019G24KT 24/17 A2993 RMK A01 T02440173  RH  068%=      5-min Rain = 0
KLD1 260200Z 15017KT 24/17 A2993 RMK A01 T02420174  RH  069%=      5-min Rain = 0
KLD1 260205Z 15016KT 24/17 A2993 RMK A01 T02400174  RH  070%=      5-min Rain = 0
KLD1 260210Z 15018G24KT 24/18 A2994 RMK A01 T02390175  RH  071%=      5-min Rain = 0
KLD1 260215Z 15018G25KT 24/18 A2994 RMK A01 T02370175  RH  072%=      5-min Rain = 0
KLD1 260220Z 15017KT 24/18 A2994 RMK A01 T02350175  RH  073%=      5-min Rain = 0
KLD1 260225Z 15019G24KT 23/18 A2994 RMK A01 T02340175  RH  073%=      5-min Rain = 0
KLD1 260230Z 15019G24KT 23/18 A2994 RMK A01 T02340175  RH  073%=      5-min Rain = 0
KLD1 260235Z 15017G22KT 23/18 A2994 RMK A01 T02320175  RH  074%=      5-min Rain = 0
KLD1 260240Z 15017KT 23/18 A2994 RMK A01 T02310176  RH  075%=      5-min Rain = 0
KLD1 260245Z 15016G22KT 23/18 A2994 RMK A01 T02310176  RH  075%=      5-min Rain = 0
KLD1 260250Z 15016KT 23/18 A2995 RMK A01 T02290176  RH  076%=      5-min Rain = 0
KLD1 260255Z 15015KT 23/18 A2995 RMK A01 T02270176  RH  077%=      5-min Rain = 0
KLD1 260300Z 15016KT 23/18 A2995 RMK A01 T02260176  RH  077%=      5-min Rain = 0
KLD1 260305Z 15016KT 23/18 A2995 RMK A01 T02250176  RH  078%=      5-min Rain = 0
KLD1 260310Z 15015KT 22/18 A2995 RMK A01 T02240177  RH  078%=      5-min Rain = 0
KLD1 260315Z 15014KT 22/18 A2995 RMK A01 T02230177  RH  079%=      5-min Rain = 0
KLD1 260320Z 15014KT 22/18 A2995 RMK A01 T02220177  RH  080%=      5-min Rain = 0
KLD1 260325Z 15013KT 22/18 A2995 RMK A01 T02210177  RH  080%=      5-min Rain = 0
KLD1 260330Z 15013KT 22/18 A2995 RMK A01 T02190177  RH  081%=      5-min Rain = 0
KLD1 260335Z 16014KT 22/18 A2996 RMK A01 T02180177  RH  081%=      5-min Rain = 0
KLD1 260340Z 16014KT 22/18 A2996 RMK A01 T02190176  RH  081%=      5-min Rain = 0
KLD1 260345Z 16015KT 22/18 A2996 RMK A01 T02190176  RH  081%=      5-min Rain = 0
KLD1 260350Z 16015KT 22/18 A2996 RMK A01 T02180176  RH  081%=      5-min Rain = 0
KLD1 260355Z 16014KT 22/18 A2996 RMK A01 T02170176  RH  081%=      5-min Rain = 0
KLD1 260400Z 16013KT 22/18 A2996 RMK A01 T02150175  RH  082%=      5-min Rain = 0
KLD1 260405Z 16013KT 22/18 A2997 RMK A01 T02150176  RH  082%=      5-min Rain = 0
KLD1 260410Z 16012KT 21/18 A2997 RMK A01 T02140175  RH  083%=      5-min Rain = 0
KLD1 260415Z 16012KT 21/18 A2997 RMK A01 T02130175  RH  083%=      5-min Rain = 0
KLD1 260420Z 17012KT 21/18 A2997 RMK A01 T02120175  RH  083%=      5-min Rain = 0
KLD1 260425Z 17012KT 21/17 A2997 RMK A01 T02120174  RH  083%=      5-min Rain = 0
KLD1 260430Z 17011KT 21/17 A2997 RMK A01 T02120173  RH  083%=      5-min Rain = 0
KLD1 260435Z 17011KT 21/17 A2997 RMK A01 T02110173  RH  083%=      5-min Rain = 0
KLD1 260440Z 17011KT 21/17 A2997 RMK A01 T02100173  RH  084%=      5-min Rain = 0
KLD1 260445Z 17012KT 21/17 A2996 RMK A01 T02100173  RH  084%=      5-min Rain = 0
KLD1 260450Z 18012KT 21/17 A2996 RMK A01 T02090172  RH  083%=      5-min Rain = 0
KLD1 260455Z 18011KT 21/17 A2996 RMK A01 T02080172  RH  084%=      5-min Rain = 0

Page generated in 0.0287 seconds.